Flight Track Log - Related Links

Times and Time Zones

All times are in EST time to prevent confusion due to time zone crossing. See the AMF5453 flight status page for this flight to view local times or setup timezone preferences in your user account.

Time Position Orientation Groundspeed Altitude Reporting Facility
EST Latitude Longitude Course Direction KTS MPH feet Rate Location/Type
Wed 04:09:32 PM 43.1169 -76.1656 292° West 141 162 2,700  Level Boston Center
Wed 04:10:33 PM 43.1319 -76.2169 292° West 149 171 4,400 1,537 Climbing Boston Center
Wed 04:11:33 PM 43.1472 -76.2656 293° West 144 166 5,800 1,111 Climbing Boston Center
Wed 04:11:54 PM 43.1483 -76.2794 276° West 146 168 5,900 179 Climbing Boston Center
Wed 04:12:40 PM 43.1528 -76.3317 277° West 159 183 6,000 98 Climbing Boston Center
Wed 04:12:55 PM 43.1531 -76.3375 274° West 155 178 6,000  Level Boston Center
Wed 04:13:41 PM 43.1550 -76.3939 273° West 162 186 6,000 -98 Level Boston Center
Wed 04:13:56 PM 43.1553 -76.3992 274° West 159 183 5,900  Descending Boston Center
Wed 04:14:42 PM 43.1533 -76.4544 267° West 161 185 6,000 97 Climbing Boston Center
Wed 04:14:58 PM 43.1522 -76.4722 265° West 161 185 6,000 -79 Level Boston Center
Wed 04:15:58 PM 43.1494 -76.5333 266° West 161 185 5,900  Descending Boston Center
Wed 04:16:43 PM 43.1469 -76.5783 266° West 162 186 6,000  Climbing Boston Center
Wed 04:16:58 PM 43.1478 -76.5942 274° West 161 185 5,900  Descending Boston Center
Wed 04:17:42 PM 43.1469 -76.6397 269° West 161 185 6,000 97 Climbing Boston Center
Wed 04:18:00 PM 43.1467 -76.6558 269° West 161 185 6,000  Level Boston Center
Wed 04:18:45 PM 43.1469 -76.7011 270° West 169 194 6,000  Level Boston Center
Wed 04:19:00 PM 43.1447 -76.7167 259° West 161 185 6,000  Level Boston Center
Wed 04:19:45 PM 43.1428 -76.7611 267° West 164 189 6,000  Level Boston Center
Wed 04:20:01 PM 43.1431 -76.7794 271° West 163 188 6,000 -74 Level Boston Center
Wed 04:21:06 PM 43.1444 -76.8392 272° West 164 189 5,900  Descending Cleveland Center
Wed 04:21:43 PM 43.1411 -76.8914 265° West 163 188 6,000 97 Climbing Cleveland Center
Wed 04:22:08 PM 43.1408 -76.9136 269° West 164 189 6,000  Level Cleveland Center
Wed 04:22:43 PM 43.1350 -76.9506 258° West 160 184 6,000  Level Cleveland Center
Wed 04:23:10 PM 43.1325 -76.9736 262° West 164 189 6,000  Level Cleveland Center
Wed 04:23:38 PM 43.1256 -77.0061 254° West 163 188 6,000  Level Cleveland Center
Wed 04:24:12 PM 43.1222 -77.0339 261° West 164 189 6,000  Level Cleveland Center
Wed 04:24:38 PM 43.1194 -77.0653 263° West 162 186 6,000  Level Cleveland Center
Wed 04:25:14 PM 43.1167 -77.0944 263° West 162 186 6,000  Level Cleveland Center
Wed 04:25:39 PM 43.1172 -77.1283 271° West 163 188 6,000  Level Cleveland Center
Wed 04:26:17 PM 43.1161 -77.1556 267° West 161 185 6,000  Level Cleveland Center
Wed 04:26:46 PM 43.1161 -77.1975 270° West 161 185 6,000  Level Cleveland Center
Wed 04:27:19 PM 43.1181 -77.2289 275° West 160 184 6,000  Level Cleveland Center
Wed 04:27:46 PM 43.1203 -77.2594 276° West 162 186 6,000  Level Cleveland Center
Wed 04:28:21 PM 43.1231 -77.2900 277° West 161 185 6,000 -98 Level Cleveland Center
Wed 04:28:47 PM 43.1244 -77.3214 273° West 163 188 5,900  Descending Cleveland Center
Wed 04:29:23 PM 43.1264 -77.3517 275° West 162 186 6,000 98 Climbing Cleveland Center
Wed 04:29:48 PM 43.1264 -77.3825 270° West 162 186 6,000  Level Cleveland Center
Wed 04:30:25 PM 43.1283 -77.4125 275° West 162 186 6,000  Level Cleveland Center
Wed 04:30:54 PM 43.1272 -77.4525 268° West 162 186 6,000  Level Cleveland Center
Wed 04:31:27 PM 43.1283 -77.4736 274° West 162 186 6,000  Level Cleveland Center
Wed 04:31:49 PM 43.1264 -77.5042 265° West 162 186 6,000  Level Cleveland Center
Wed 04:32:29 PM 43.1267 -77.5483 271° West 163 188 6,000  Level Cleveland Center
Wed 04:32:49 PM 43.1239 -77.5672 259° West 164 189 6,000  Level Cleveland Center
Wed 04:33:31 PM 43.1231 -77.6092 268° West 163 188 6,000  Level Cleveland Center
Wed 04:33:50 PM 43.1217 -77.6275 264° West 161 185 6,000  Level Cleveland Center
Wed 04:34:33 PM 43.1197 -77.6703 266° West 162 186 6,000  Level Cleveland Center
Wed 04:34:44 PM 43.1153 -77.6867 250° West 163 188 6,000  Level Cleveland Center
Wed 04:35:35 PM 43.1072 -77.7317 256° West 172 198 6,000  Level Cleveland Center
Wed 04:35:45 PM 43.1044 -77.7478 257° West 164 189 6,000  Level Cleveland Center
Wed 04:36:38 PM 43.0981 -77.7922 259° West 166 191 6,000  Level Cleveland Center
Wed 04:36:52 PM 43.0933 -77.8114 251° West 165 190 6,000  Level Cleveland Center
Wed 04:37:40 PM 43.0858 -77.8525 256° West 166 191 6,000  Level Cleveland Center
Wed 04:37:46 PM 43.0828 -77.8694 256° West 165 190 6,000  Level Cleveland Center
Wed 04:38:42 PM 43.0719 -77.9244 255° West 164 189 6,000  Level Cleveland Center
Wed 04:38:47 PM 43.0697 -77.9297 240° Southwest 164 189 6,000  Level Cleveland Center
Wed 04:39:44 PM 43.0631 -77.9847 261° West 163 188 6,000 -252 Level Cleveland Center
Wed 04:40:46 PM 43.0531 -78.0481 258° West 169 194 5,500 -532 Descending Cleveland Center
Wed 04:41:48 PM 43.0375 -78.1125 252° West 177 204 4,900 -532 Descending Cleveland Center
Wed 04:42:50 PM 43.0267 -78.1761 257° West 174 200 4,400 -435 Descending Cleveland Center
Wed 04:43:52 PM 43.0097 -78.2497 253° West 171 197 4,000 -194 Descending Cleveland Center
Wed 04:44:54 PM 43.0094 -78.3117 270° West 164 189 4,000  Level Cleveland Center
Wed 04:45:56 PM 43.0214 -78.3703 286° West 164 189 4,000  Level Cleveland Center
Wed 04:46:59 PM 43.0475 -78.4250 303° West 170 196 4,000  Level Cleveland Center
Wed 04:48:01 PM 43.0733 -78.4781 304° West 169 194 4,000  Level Cleveland Center
Wed 04:49:03 PM 43.1031 -78.5397 303° West 166 191 4,000  Level Cleveland Center
Wed 04:50:05 PM 43.0944 -78.5883 256° West 174 200 4,000 -339 Level Cleveland Center
Wed 04:51:07 PM 43.0503 -78.6003 191° South 171 197 3,300 -726 Descending Cleveland Center
Wed 04:52:09 PM 43.0131 -78.6342 214° Southwest 162 186 2,500 -709 Descending Cleveland Center
Wed 04:52:57 PM 43.0000 -78.6667 241° Southwest 113 130 2,000 -526 Descending Buffalo TRACON
Wed 04:54:03 PM 42.9667 -78.6833 200° South 89 102 1,500 -524 Descending Buffalo TRACON
Wed 04:55:03 PM 42.9500 -78.7167 236° Southwest 96 110 900 -600 Descending Buffalo TRACON

Login

Don't have an account? Register now (free) for customized features, flight alerts, and more!